createdAt,value
2022-08-19T10:33:04.370Z,22.37
2022-08-19T10:36:19.232Z,22.33
2022-08-19T10:39:23.530Z,22.34
2022-08-19T10:42:27.815Z,22.29
2022-08-19T10:45:32.013Z,22.26
2022-08-19T10:48:37.647Z,22.15
2022-08-19T10:52:00.633Z,22.13
2022-08-19T10:55:25.389Z,22.08
2022-08-19T10:58:33.472Z,22.01
2022-08-19T11:01:37.707Z,21.99
2022-08-19T11:04:41.975Z,22.09
2022-08-19T11:07:46.293Z,22.10
2022-08-19T11:10:50.666Z,22.23
2022-08-19T11:13:55.505Z,22.35
2022-08-19T11:16:59.763Z,22.47
2022-08-19T11:20:06.392Z,22.38
2022-08-19T11:23:10.109Z,22.44
2022-08-19T11:26:15.719Z,22.46
2022-08-19T11:29:22.265Z,22.47
2022-08-19T11:32:26.197Z,22.52
2022-08-19T11:35:30.377Z,22.71
2022-08-19T11:38:36.285Z,22.83
2022-08-19T11:41:41.094Z,22.68
2022-08-19T11:44:44.806Z,22.75
2022-08-19T11:47:48.852Z,22.68
2022-08-19T11:50:56.339Z,22.83
2022-08-19T11:54:00.970Z,22.90
2022-08-19T11:57:05.078Z,22.94
2022-08-19T12:00:12.597Z,22.90
2022-08-19T12:03:16.689Z,22.84
2022-08-19T12:06:34.896Z,22.92
2022-08-19T12:09:42.805Z,22.93
2022-08-19T12:12:47.377Z,23.12
2022-08-19T12:15:57.995Z,23.22
2022-08-19T12:19:04.736Z,23.23
2022-08-19T12:22:09.384Z,23.46
2022-08-19T12:25:13.343Z,23.44
2022-08-19T12:28:18.970Z,23.36
2022-08-19T12:31:22.938Z,23.48
2022-08-19T12:34:30.878Z,23.58
2022-08-19T12:37:34.876Z,23.68
2022-08-19T12:40:40.947Z,23.67
2022-08-19T12:43:45.965Z,23.75
2022-08-19T12:46:50.409Z,23.66
2022-08-19T12:49:58.248Z,23.60
2022-08-19T12:53:02.640Z,23.58
2022-08-19T12:56:12.140Z,23.79
2022-08-19T12:59:18.551Z,23.97
2022-08-19T13:02:23.446Z,24.03
2022-08-19T13:05:30.679Z,23.95
2022-08-19T13:08:34.430Z,23.96
2022-08-19T13:11:38.963Z,24.05
2022-08-19T13:14:43.429Z,23.93
2022-08-19T13:17:51.987Z,24.04
2022-08-19T13:20:57.366Z,24.04
2022-08-19T13:24:01.796Z,24.14
2022-08-19T13:27:05.919Z,23.88
2022-08-19T13:30:31.533Z,23.88
2022-08-19T13:33:36.464Z,23.85
2022-08-19T13:36:40.560Z,23.84
2022-08-19T13:39:45.976Z,23.72
2022-08-19T13:42:52.814Z,23.62
2022-08-19T13:45:57.685Z,23.48
2022-08-19T13:49:01.988Z,23.23
2022-08-19T13:52:06.720Z,23.22
2022-08-19T13:55:12.277Z,23.19
2022-08-19T13:58:16.186Z,23.13
2022-08-19T14:01:24.345Z,23.06
2022-08-19T14:04:28.805Z,23.07
2022-08-19T14:07:33.052Z,23.02
2022-08-19T14:10:37.308Z,23.00
2022-08-19T14:13:41.994Z,23.01
2022-08-19T14:16:46.014Z,23.00
2022-08-19T14:19:50.454Z,23.01
2022-08-19T14:22:55.676Z,23.11
2022-08-19T14:26:08.346Z,23.19
2022-08-19T14:29:13.530Z,23.22
2022-08-19T14:32:17.763Z,23.16
2022-08-19T14:35:25.871Z,23.08
2022-08-19T14:38:32.361Z,23.15
2022-08-19T14:41:36.898Z,23.25
2022-08-19T14:44:41.806Z,23.37
2022-08-19T14:47:46.172Z,23.45
2022-08-19T14:50:50.315Z,23.43
2022-08-19T14:53:54.827Z,23.37
2022-08-19T14:56:58.891Z,23.43
2022-08-19T15:00:04.576Z,23.41
2022-08-19T15:03:08.420Z,23.43
2022-08-19T15:06:12.924Z,23.43
2022-08-19T15:09:17.404Z,23.42
2022-08-19T15:12:22.876Z,23.50
2022-08-19T15:15:27.223Z,23.53
2022-08-19T15:18:31.530Z,23.42
2022-08-19T15:21:37.215Z,23.21
2022-08-19T15:24:47.926Z,23.15
2022-08-19T15:27:53.846Z,23.02
2022-08-19T15:30:57.917Z,23.03
2022-08-19T15:34:02.985Z,22.98
2022-08-19T15:37:07.538Z,22.94
2022-08-19T15:40:12.590Z,22.95
2022-08-19T15:43:18.737Z,22.92
2022-08-19T15:46:28.247Z,22.89
2022-08-19T15:49:33.250Z,22.83
2022-08-19T15:52:37.045Z,22.84
2022-08-19T15:55:52.680Z,22.90
2022-08-19T15:59:15.458Z,22.99
2022-08-19T16:02:39.849Z,23.00
2022-08-19T16:06:02.568Z,23.02
2022-08-19T16:09:06.909Z,23.00
2022-08-19T16:12:11.063Z,23.03
2022-08-19T16:15:15.160Z,22.97
2022-08-19T16:18:19.084Z,22.86
2022-08-19T16:21:26.076Z,22.74
2022-08-19T16:24:30.346Z,22.73
2022-08-19T16:27:34.837Z,22.75
2022-08-19T16:30:39.927Z,22.76
2022-08-19T16:33:43.812Z,22.79
2022-08-19T16:36:48.491Z,22.79
2022-08-19T16:39:52.627Z,22.82
2022-08-19T16:42:56.936Z,22.85
2022-08-19T16:46:01.530Z,22.75
2022-08-19T16:49:05.868Z,22.78
2022-08-19T16:52:10.335Z,22.73
2022-08-19T16:55:14.771Z,22.72
2022-08-19T16:58:20.563Z,22.67
2022-08-19T17:01:32.425Z,22.62
2022-08-19T17:04:36.397Z,22.57
2022-08-19T17:07:39.904Z,22.53
2022-08-19T17:10:56.857Z,22.52
2022-08-19T17:14:08.674Z,22.49
2022-08-19T17:17:12.987Z,22.43
2022-08-19T17:20:17.159Z,22.38
2022-08-19T17:23:42.438Z,22.33
2022-08-19T17:26:47.478Z,22.31
2022-08-19T17:29:53.132Z,22.28
2022-08-19T17:32:57.746Z,22.21
2022-08-19T17:36:04.203Z,22.12
2022-08-19T17:39:08.628Z,22.10
2022-08-19T17:42:12.466Z,22.04
2022-08-19T17:45:17.794Z,22.04
2022-08-19T17:48:22.031Z,22.03
2022-08-19T17:51:42.148Z,22.05
2022-08-19T17:54:46.407Z,22.09
2022-08-19T17:57:51.203Z,22.09
2022-08-19T18:00:55.467Z,22.11
2022-08-19T18:04:01.636Z,22.12
2022-08-19T18:07:06.841Z,22.07
2022-08-19T18:10:11.823Z,22.06
2022-08-19T18:13:17.417Z,22.00
2022-08-19T18:16:22.192Z,21.96
2022-08-19T18:19:29.476Z,21.90
2022-08-19T18:22:48.473Z,21.82
2022-08-19T18:25:52.666Z,21.82
2022-08-19T18:28:57.228Z,21.82
2022-08-19T18:32:01.317Z,21.79
2022-08-19T18:35:11.764Z,21.77
2022-08-19T18:38:37.267Z,21.76
2022-08-19T18:41:59.947Z,21.75
2022-08-19T18:45:24.300Z,21.71
2022-08-19T18:48:47.039Z,21.65
2022-08-19T18:51:51.623Z,21.63
2022-08-19T18:54:55.320Z,21.64
2022-08-19T18:57:59.309Z,21.61
2022-08-19T19:01:11.500Z,21.62
2022-08-19T19:04:21.715Z,21.67
2022-08-19T19:07:26.350Z,21.70
2022-08-19T19:10:30.180Z,21.73
2022-08-19T19:13:37.496Z,21.74
2022-08-19T19:16:45.779Z,21.71
2022-08-19T19:19:51.272Z,21.70
2022-08-19T19:22:56.045Z,21.69
2022-08-19T19:26:02.438Z,21.67
2022-08-19T19:29:06.661Z,21.67
2022-08-19T19:32:18.424Z,21.67
2022-08-19T19:35:22.734Z,21.68
2022-08-19T19:38:26.949Z,21.68
2022-08-19T19:41:33.019Z,21.67
2022-08-19T19:44:41.287Z,21.66
2022-08-19T19:47:51.386Z,21.64
2022-08-19T19:50:56.504Z,21.66
2022-08-19T19:54:01.854Z,21.67
2022-08-19T19:57:06.100Z,21.64
2022-08-19T20:00:15.258Z,21.64
2022-08-19T20:03:20.771Z,21.62
2022-08-19T20:06:24.614Z,21.66
2022-08-19T20:09:49.650Z,21.65
2022-08-19T20:12:54.796Z,21.60
2022-08-19T20:15:59.358Z,21.58
2022-08-19T20:19:03.639Z,21.55
2022-08-19T20:22:07.685Z,21.54
2022-08-19T20:25:12.636Z,21.53
2022-08-19T20:28:17.437Z,21.55
2022-08-19T20:31:22.096Z,21.56
2022-08-19T20:34:27.407Z,21.58
2022-08-19T20:37:31.720Z,21.54
2022-08-19T20:40:36.644Z,21.51
2022-08-19T20:43:40.942Z,21.46
2022-08-19T20:46:54.225Z,21.47
2022-08-19T20:49:59.742Z,21.44
2022-08-19T20:53:15.007Z,21.43
2022-08-19T20:56:19.029Z,21.44
2022-08-19T20:59:23.977Z,21.51
2022-08-19T21:02:27.926Z,21.53
2022-08-19T21:05:32.001Z,21.48
2022-08-19T21:08:37.177Z,21.45
2022-08-19T21:11:41.473Z,21.44
2022-08-19T21:14:47.091Z,21.41
2022-08-19T21:17:51.911Z,21.37
2022-08-19T21:20:56.286Z,21.33
2022-08-19T21:24:01.205Z,21.30
2022-08-19T21:27:05.641Z,21.30
2022-08-19T21:30:10.455Z,21.25
2022-08-19T21:33:15.032Z,21.27
2022-08-19T21:36:20.473Z,21.23
2022-08-19T21:39:24.815Z,21.18
2022-08-19T21:42:29.254Z,21.18
2022-08-19T21:45:33.783Z,21.16
2022-08-19T21:48:37.905Z,21.16
2022-08-19T21:51:42.062Z,21.16
2022-08-19T21:54:46.024Z,21.17
2022-08-19T21:57:50.112Z,21.17
2022-08-19T22:00:54.330Z,21.16
2022-08-19T22:03:58.935Z,21.23
2022-08-19T22:07:03.218Z,21.23
2022-08-19T22:10:07.995Z,21.19
2022-08-19T22:13:11.768Z,21.23
2022-08-19T22:16:17.965Z,21.17
2022-08-19T22:19:21.694Z,21.16
2022-08-19T22:22:29.670Z,21.14
2022-08-19T22:25:38.060Z,21.08
2022-08-19T22:28:42.782Z,21.04
2022-08-19T22:31:54.311Z,20.99
2022-08-19T22:35:00.553Z,20.93
2022-08-19T22:38:07.112Z,20.86
2022-08-19T22:41:11.578Z,20.73
2022-08-19T22:44:15.625Z,20.73
2022-08-19T22:47:19.775Z,20.58
2022-08-19T22:50:24.335Z,20.55
2022-08-19T22:53:28.379Z,20.51
2022-08-19T22:56:32.158Z,20.54
2022-08-19T22:59:36.197Z,20.53
2022-08-19T23:02:52.356Z,20.46
2022-08-19T23:05:56.839Z,20.46
2022-08-19T23:09:01.420Z,20.49
2022-08-19T23:12:08.616Z,20.51
2022-08-19T23:15:19.702Z,20.47
2022-08-19T23:18:24.011Z,20.47
2022-08-19T23:21:28.117Z,20.48
2022-08-19T23:24:31.866Z,20.45
2022-08-19T23:27:54.856Z,20.40
2022-08-19T23:30:58.897Z,20.37
2022-08-19T23:34:05.843Z,20.33
2022-08-19T23:37:09.709Z,20.34
2022-08-19T23:40:16.298Z,20.36
2022-08-19T23:43:24.466Z,20.34
2022-08-19T23:46:29.410Z,20.33
2022-08-19T23:49:35.623Z,20.30
2022-08-19T23:52:54.801Z,20.22
2022-08-19T23:55:58.871Z,20.23
2022-08-19T23:59:02.920Z,20.24
